Time;durP1;ratioP1;P1;durP2;ratioP2;P2;SDS_P1;SDS_P2;PMS_P1;PMS_P2;Temp;Humidity;BMP_temperature;BMP_pressure;BME280_temperature;BME280_humidity;BME280_pressure;Samples;Min_cycle;Max_cycle;Signal;HPM_P1;HPM_P2
2022/06/15 00:00:34;;;;;;;5.53;2.30;;;14.70;99.80;;;;;;4969404;28;20050;-54
2022/06/15 00:03:00;;;;;;;6.05;2.25;;;14.70;99.90;;;;;;4970375;28;20090;-54
2022/06/15 00:05:27;;;;;;;4.70;2.20;;;14.70;99.90;;;;;;4971676;28;20130;-53
2022/06/15 00:07:53;;;;;;;8.05;2.72;;;14.60;99.90;;;;;;4972670;28;20053;-54
2022/06/15 00:10:20;;;;;;;5.82;1.98;;;14.60;99.90;;;;;;4968215;28;20535;-53
2022/06/15 00:12:46;;;;;;;4.28;1.80;;;14.50;99.90;;;;;;4967282;28;20130;-53
2022/06/15 00:15:13;;;;;;;4.18;2.25;;;14.50;99.90;;;;;;4971204;28;20145;-54
2022/06/15 00:17:39;;;;;;;4.63;2.03;;;14.50;99.90;;;;;;4971768;28;20110;-51
2022/06/15 00:20:05;;;;;;;5.63;2.28;;;14.40;99.90;;;;;;4972008;28;20456;-53
2022/06/15 00:22:31;;;;;;;4.05;2.42;;;14.40;99.90;;;;;;4958756;28;20050;-53
2022/06/15 00:24:57;;;;;;;5.85;2.13;;;14.30;99.90;;;;;;4968708;28;20042;-53
2022/06/15 00:27:22;;;;;;;4.15;2.30;;;14.30;99.90;;;;;;4972066;28;20346;-52
2022/06/15 00:29:48;;;;;;;4.15;2.22;;;14.30;99.90;;;;;;4968420;28;20373;-53
2022/06/15 00:32:14;;;;;;;4.85;2.20;;;14.20;99.90;;;;;;4971421;28;20400;-54
2022/06/15 00:34:40;;;;;;;3.78;2.38;;;14.20;99.90;;;;;;4952716;28;20035;-52
2022/06/15 00:37:06;;;;;;;5.65;2.50;;;14.10;99.90;;;;;;4968334;28;20045;-53
2022/06/15 00:39:33;;;;;;;4.55;2.30;;;14.10;99.90;;;;;;4967884;28;20173;-54
2022/06/15 00:41:59;;;;;;;7.88;2.47;;;14.10;99.90;;;;;;4968703;28;20101;-53
2022/06/15 00:44:25;;;;;;;6.45;2.78;;;14.10;99.90;;;;;;4970249;28;20047;-54
2022/06/15 00:46:58;;;;;;;6.18;2.78;;;14.00;99.90;;;;;;4970603;28;20038;-47
2022/06/15 00:49:27;;;;;;;5.10;2.75;;;14.00;99.90;;;;;;4968520;28;20047;-52
2022/06/15 00:51:58;;;;;;;5.90;2.90;;;13.90;99.90;;;;;;4969549;28;20039;-51
2022/06/15 00:54:24;;;;;;;5.57;2.75;;;14.00;99.90;;;;;;4971938;28;20039;-53
2022/06/15 00:56:51;;;;;;;5.57;3.00;;;13.90;99.90;;;;;;4971805;28;20053;-54
2022/06/15 00:59:31;;;;;;;5.63;2.63;;;13.90;99.90;;;;;;4968634;28;20042;-53
2022/06/15 01:01:57;;;;;;;7.22;2.88;;;13.90;99.90;;;;;;4970806;28;20039;-53
2022/06/15 01:04:25;;;;;;;5.82;2.97;;;13.80;99.90;;;;;;4963306;28;20042;-45
2022/06/15 01:07:04;;;;;;;6.28;2.45;;;13.80;99.90;;;;;;4969144;28;20049;-53
2022/06/15 01:09:35;;;;;;;4.55;2.78;;;13.80;99.90;;;;;;4971089;28;20047;-53
2022/06/15 01:12:09;;;;;;;6.65;3.00;;;13.80;99.90;;;;;;4969413;28;20034;-52
2022/06/15 01:15:19;;;;;;;4.93;2.55;;;13.70;99.90;;;;;;4960666;28;20055;-52
2022/06/15 01:17:56;;;;;;;9.50;3.45;;;13.70;99.90;;;;;;4970575;28;20195;-54
2022/06/15 01:20:34;;;;;;;5.25;2.75;;;13.70;99.90;;;;;;4970342;28;20042;-53
2022/06/15 01:23:06;;;;;;;4.13;2.33;;;13.60;99.90;;;;;;4968657;28;20039;-53
2022/06/15 01:25:44;;;;;;;4.35;2.75;;;13.60;99.90;;;;;;4968667;28;20098;-51
2022/06/15 01:28:44;;;;;;;5.43;2.80;;;13.60;99.90;;;;;;4969201;28;20050;-50
2022/06/15 01:31:25;;;;;;;4.85;2.72;;;13.50;99.90;;;;;;4968217;28;20042;-53
2022/06/15 01:34:32;;;;;;;5.07;2.70;;;13.50;99.90;;;;;;4974718;28;20043;-46
2022/06/15 01:37:15;;;;;;;5.38;2.90;;;13.50;99.90;;;;;;4967489;28;20841;-49
2022/06/15 01:40:17;;;;;;;5.43;2.47;;;13.50;99.90;;;;;;4968809;28;20031;-54
2022/06/15 01:42:51;;;;;;;5.18;3.00;;;13.40;99.90;;;;;;4948994;28;20137;-54
2022/06/15 01:45:20;;;;;;;4.30;2.67;;;13.40;99.90;;;;;;4966425;28;20513;-54
2022/06/15 01:47:48;;;;;;;8.65;3.05;;;13.30;99.90;;;;;;4970548;28;20084;-54
2022/06/15 01:50:23;;;;;;;4.68;2.45;;;13.30;99.90;;;;;;4966749;28;20445;-49
2022/06/15 01:53:13;;;;;;;4.70;2.78;;;13.30;99.90;;;;;;4962256;28;20536;-50
2022/06/15 01:55:54;;;;;;;3.58;2.33;;;13.30;99.90;;;;;;4964586;28;20047;-51
2022/06/15 01:58:25;;;;;;;5.18;2.63;;;13.30;99.90;;;;;;4969100;28;20078;-53
2022/06/15 02:01:07;;;;;;;4.50;2.50;;;13.20;99.90;;;;;;4969481;28;20051;-53
2022/06/15 02:03:41;;;;;;;4.00;2.72;;;13.20;99.90;;;;;;4970962;28;20046;-54
2022/06/15 02:06:27;;;;;;;6.78;3.10;;;13.20;99.90;;;;;;4969163;28;20035;-53
2022/06/15 02:09:04;;;;;;;8.02;3.17;;;13.20;99.90;;;;;;4965486;28;20050;-52
2022/06/15 02:11:34;;;;;;;4.72;2.70;;;13.10;99.90;;;;;;4978403;28;20472;-54
2022/06/15 02:14:06;;;;;;;5.43;2.90;;;13.10;99.90;;;;;;4969553;28;20069;-53
2022/06/15 02:16:40;;;;;;;8.57;2.88;;;13.10;99.90;;;;;;4969181;28;20531;-53
2022/06/15 02:19:11;;;;;;;8.48;3.55;;;13.10;99.90;;;;;;4968819;28;20503;-54
2022/06/15 02:21:40;;;;;;;7.45;2.78;;;13.10;99.90;;;;;;4969984;28;20042;-54
2022/06/15 02:24:07;;;;;;;7.20;3.65;;;13.00;99.90;;;;;;4968125;28;20666;-54
2022/06/15 02:26:37;;;;;;;7.65;2.97;;;13.00;99.90;;;;;;4968743;28;20054;-54
2022/06/15 02:29:17;;;;;;;7.70;3.28;;;12.90;99.90;;;;;;4967269;28;20039;-54
2022/06/15 02:31:43;;;;;;;4.57;2.90;;;12.90;99.90;;;;;;4964158;28;20034;-54
2022/06/15 02:34:09;;;;;;;5.45;2.88;;;12.90;99.90;;;;;;4968759;28;20065;-50
2022/06/15 02:36:35;;;;;;;7.63;3.22;;;12.90;99.90;;;;;;4969572;28;20086;-53
2022/06/15 02:39:04;;;;;;;6.57;3.10;;;12.90;99.90;;;;;;4966577;28;20046;-54
2022/06/15 02:41:30;;;;;;;6.28;2.60;;;12.80;99.90;;;;;;4952064;28;20038;-52
2022/06/15 02:43:59;;;;;;;6.68;2.42;;;12.80;99.90;;;;;;4966116;28;20468;-50
2022/06/15 02:46:26;;;;;;;7.45;2.92;;;12.80;99.90;;;;;;4967186;28;20046;-51
2022/06/15 02:48:52;;;;;;;4.93;2.55;;;12.80;99.90;;;;;;4966008;28;20046;-53
2022/06/15 02:51:28;;;;;;;7.53;2.60;;;12.80;99.90;;;;;;4963467;28;20042;-56
2022/06/15 02:53:59;;;;;;;6.70;3.40;;;12.70;99.90;;;;;;4970762;28;20460;-56
2022/06/15 02:56:25;;;;;;;7.15;2.65;;;12.70;99.90;;;;;;4968668;28;20476;-53
2022/06/15 02:58:53;;;;;;;5.38;2.80;;;12.70;99.90;;;;;;4965551;28;20031;-52
2022/06/15 03:01:20;;;;;;;4.75;2.28;;;12.70;99.90;;;;;;4964636;28;20054;-49
2022/06/15 03:03:47;;;;;;;5.25;3.00;;;12.70;99.90;;;;;;4970025;28;20035;-54
2022/06/15 03:06:15;;;;;;;6.75;2.90;;;12.60;99.90;;;;;;4968202;28;20043;-53
2022/06/15 03:08:41;;;;;;;6.57;2.53;;;12.60;99.90;;;;;;4967466;28;20074;-52
2022/06/15 03:11:07;;;;;;;8.75;2.58;;;12.60;99.90;;;;;;4964407;28;20101;-52
2022/06/15 03:13:33;;;;;;;3.50;2.50;;;12.60;99.90;;;;;;4967033;28;20053;-52
2022/06/15 03:16:00;;;;;;;4.82;3.00;;;12.60;99.90;;;;;;4965018;28;20047;-48
2022/06/15 03:18:27;;;;;;;5.90;2.50;;;12.60;99.90;;;;;;4965191;28;20038;-52
2022/06/15 03:21:00;;;;;;;4.85;2.40;;;12.60;99.90;;;;;;4969626;28;20090;-52
2022/06/15 03:23:27;;;;;;;5.55;2.70;;;12.50;99.90;;;;;;4967167;28;20046;-52
2022/06/15 03:25:58;;;;;;;4.85;3.03;;;12.50;99.90;;;;;;4967411;28;20102;-53
2022/06/15 03:28:24;;;;;;;8.30;2.90;;;12.50;99.90;;;;;;4955356;28;20054;-55
2022/06/15 03:30:51;;;;;;;5.65;2.85;;;12.50;99.90;;;;;;4968313;28;20228;-46
2022/06/15 03:33:17;;;;;;;4.45;3.00;;;12.50;99.90;;;;;;4965089;28;20504;-53
2022/06/15 03:35:44;;;;;;;5.50;2.75;;;12.50;99.90;;;;;;4968338;28;20105;-52
2022/06/15 03:38:10;;;;;;;5.03;2.85;;;12.50;99.90;;;;;;4959870;28;20749;-52
2022/06/15 03:40:40;;;;;;;5.78;2.45;;;12.50;99.90;;;;;;4961958;28;20074;-53
2022/06/15 03:43:07;;;;;;;5.75;3.17;;;12.50;99.90;;;;;;4966087;28;20077;-52
2022/06/15 03:45:33;;;;;;;3.85;2.17;;;12.40;99.90;;;;;;4967219;28;20050;-53
2022/06/15 03:47:59;;;;;;;3.95;2.38;;;12.40;99.90;;;;;;4967791;28;20046;-53
2022/06/15 03:50:28;;;;;;;6.38;2.92;;;12.50;99.90;;;;;;4966892;28;20043;-52
2022/06/15 03:52:54;;;;;;;5.45;2.90;;;12.50;99.90;;;;;;4963157;28;20114;-54
2022/06/15 03:55:20;;;;;;;5.20;2.42;;;12.50;99.90;;;;;;4966092;28;20051;-50
2022/06/15 03:57:47;;;;;;;7.65;2.55;;;12.50;99.90;;;;;;4965323;28;20038;-54
2022/06/15 04:00:19;;;;;;;5.53;2.65;;;12.50;99.90;;;;;;4968360;28;20357;-53
2022/06/15 04:02:45;;;;;;;5.03;2.47;;;12.50;99.90;;;;;;4966598;28;20046;-51
2022/06/15 04:05:25;;;;;;;6.20;2.42;;;12.50;99.90;;;;;;4963083;28;20079;-53
2022/06/15 04:10:35;;;;;;;5.30;2.20;;;12.50;99.90;;;;;;4966419;28;20051;-53
2022/06/15 04:13:02;;;;;;;5.25;2.55;;;12.60;99.90;;;;;;4968310;28;20051;-51
2022/06/15 04:15:28;;;;;;;4.22;2.08;;;12.60;99.90;;;;;;4954205;28;20076;-53
2022/06/15 04:17:53;;;;;;;5.40;2.10;;;12.60;99.90;;;;;;4972670;28;20133;-53
2022/06/15 04:20:36;;;;;;;6.50;2.70;;;12.60;99.90;;;;;;4971872;28;20532;-52
2022/06/15 04:23:06;;;;;;;3.60;2.00;;;12.60;99.90;;;;;;4967145;28;20039;-54
2022/06/15 04:25:37;;;;;;;4.68;2.25;;;12.70;99.90;;;;;;4971267;28;20492;-54
2022/06/15 04:28:05;;;;;;;5.85;2.03;;;12.70;99.90;;;;;;4970372;28;20043;-52
2022/06/15 04:30:31;;;;;;;4.28;2.33;;;12.70;99.90;;;;;;4972907;28;20506;-52
2022/06/15 04:32:56;;;;;;;7.47;2.33;;;12.80;99.90;;;;;;4975933;28;20133;-50
2022/06/15 04:35:22;;;;;;;5.30;2.33;;;12.80;99.90;;;;;;4970051;28;20031;-53
2022/06/15 04:37:48;;;;;;;7.90;2.78;;;12.90;99.90;;;;;;4952139;28;20405;-53
2022/06/15 04:40:14;;;;;;;4.72;2.65;;;12.90;99.90;;;;;;4972489;28;20079;-52
2022/06/15 04:42:41;;;;;;;6.43;2.58;;;13.00;99.90;;;;;;4970805;28;20386;-51
2022/06/15 04:45:09;;;;;;;6.50;2.50;;;13.10;99.90;;;;;;4953966;28;20043;-53
2022/06/15 04:47:35;;;;;;;6.03;2.40;;;13.10;99.90;;;;;;4970662;28;20078;-51
2022/06/15 04:50:01;;;;;;;5.68;2.92;;;13.20;99.90;;;;;;4969371;28;20448;-52
2022/06/15 04:52:26;;;;;;;7.22;2.92;;;13.20;99.90;;;;;;4970996;28;20030;-52
2022/06/15 04:54:52;;;;;;;5.88;2.88;;;13.30;99.90;;;;;;4967652;28;20030;-50
2022/06/15 04:57:18;;;;;;;7.95;2.45;;;13.40;99.90;;;;;;4970780;28;20165;-49
2022/06/15 04:59:43;;;;;;;8.80;2.70;;;13.40;99.90;;;;;;4970688;28;20046;-54
2022/06/15 05:02:12;;;;;;;4.47;2.75;;;13.40;99.90;;;;;;4968602;28;20137;-53
2022/06/15 05:04:38;;;;;;;5.63;2.78;;;13.50;99.90;;;;;;4954927;28;20405;-54
2022/06/15 05:07:04;;;;;;;4.72;2.15;;;13.50;99.90;;;;;;4971808;28;20043;-53
2022/06/15 05:09:29;;;;;;;6.30;2.22;;;13.60;99.90;;;;;;4970559;28;20069;-53
2022/06/15 05:11:55;;;;;;;4.13;2.05;;;13.60;99.90;;;;;;4971298;28;20039;-51
2022/06/15 05:14:21;;;;;;;4.13;1.95;;;13.60;99.90;;;;;;4968211;28;20134;-50
2022/06/15 05:16:47;;;;;;;5.63;2.47;;;13.60;99.90;;;;;;4968741;28;20142;-53
2022/06/15 05:19:13;;;;;;;4.78;2.63;;;13.70;99.90;;;;;;4967874;28;20088;-54
2022/06/15 05:21:44;;;;;;;4.97;2.50;;;13.80;99.90;;;;;;4970138;28;20507;-53
2022/06/15 05:24:10;;;;;;;6.82;2.38;;;13.90;99.90;;;;;;4965433;28;20158;-54
2022/06/15 05:26:35;;;;;;;5.65;2.67;;;13.90;99.90;;;;;;4963360;28;20124;-47
2022/06/15 05:29:01;;;;;;;7.18;2.63;;;14.00;99.90;;;;;;4959628;28;20633;-47
2022/06/15 05:31:27;;;;;;;4.22;2.05;;;14.10;99.90;;;;;;4970810;28;20039;-53
2022/06/15 05:33:55;;;;;;;2.50;1.67;;;14.10;99.90;;;;;;4966222;28;20097;-53
2022/06/15 05:36:32;;;;;;;8.30;2.35;;;14.20;99.90;;;;;;4970403;28;20058;-51
2022/06/15 05:38:58;;;;;;;5.15;2.55;;;14.30;99.90;;;;;;4967556;28;20113;-53
2022/06/15 05:41:24;;;;;;;4.43;2.38;;;14.40;99.90;;;;;;4960254;28;20469;-53
2022/06/15 05:43:53;;;;;;;7.90;2.85;;;14.50;99.90;;;;;;4960877;28;20042;-51
2022/06/15 05:46:26;;;;;;;4.03;2.40;;;14.50;99.90;;;;;;4955630;28;20101;-54
2022/06/15 05:48:53;;;;;;;5.45;2.25;;;14.60;99.90;;;;;;4947330;28;20532;-54
2022/06/15 05:51:19;;;;;;;5.03;2.13;;;14.70;99.90;;;;;;4960836;28;20053;-52
2022/06/15 05:53:45;;;;;;;4.43;2.00;;;14.80;99.90;;;;;;4964097;28;20042;-57
2022/06/15 05:56:10;;;;;;;4.63;2.47;;;14.90;99.90;;;;;;4964636;28;20130;-50
2022/06/15 05:58:36;;;;;;;5.78;2.20;;;15.00;99.90;;;;;;4963357;28;20472;-47
2022/06/15 06:01:15;;;;;;;5.25;2.10;;;15.10;99.90;;;;;;4941329;28;20072;-52
2022/06/15 06:03:41;;;;;;;6.03;2.60;;;15.20;99.90;;;;;;4964910;28;20121;-52
2022/06/15 06:06:06;;;;;;;4.22;1.73;;;15.30;99.90;;;;;;4947494;28;20073;-53
2022/06/15 06:08:32;;;;;;;4.72;1.88;;;15.40;99.90;;;;;;4965082;28;20046;-50
2022/06/15 06:10:58;;;;;;;6.50;2.92;;;15.50;99.90;;;;;;4963971;28;20230;-54
2022/06/15 06:13:23;;;;;;;4.95;2.60;;;15.60;99.90;;;;;;4962329;28;20098;-50
2022/06/15 06:15:49;;;;;;;5.60;2.78;;;15.70;99.90;;;;;;4946635;28;20100;-51
2022/06/15 06:18:15;;;;;;;5.65;2.20;;;15.70;99.90;;;;;;4945886;28;20059;-53
2022/06/15 06:20:40;;;;;;;7.93;3.10;;;15.80;99.90;;;;;;4930081;29;20051;-52
2022/06/15 06:23:06;;;;;;;5.75;2.20;;;16.00;99.90;;;;;;4949496;28;20043;-53
2022/06/15 06:25:32;;;;;;;3.83;2.13;;;16.00;99.90;;;;;;4954232;28;20047;-52
2022/06/15 06:27:57;;;;;;;4.53;2.28;;;16.10;99.90;;;;;;4948877;28;20034;-54
2022/06/15 06:30:23;;;;;;;4.93;2.33;;;16.20;99.90;;;;;;4932699;29;20110;-53
2022/06/15 06:32:49;;;;;;;4.43;2.25;;;16.30;99.90;;;;;;4944300;28;20397;-52
2022/06/15 06:35:16;;;;;;;5.22;2.17;;;16.40;99.90;;;;;;4943855;28;20497;-51
2022/06/15 06:37:42;;;;;;;5.75;2.25;;;16.50;99.90;;;;;;4938738;28;20039;-49
2022/06/15 06:40:13;;;;;;;6.57;2.47;;;16.60;99.90;;;;;;4943030;28;20043;-53
2022/06/15 06:42:38;;;;;;;4.57;1.70;;;16.70;99.90;;;;;;4937364;28;20043;-46
2022/06/15 06:45:05;;;;;;;3.15;1.80;;;16.80;99.90;;;;;;4943707;28;20180;-53
2022/06/15 06:47:30;;;;;;;5.47;1.70;;;16.90;99.90;;;;;;4950012;28;20169;-51
2022/06/15 06:49:56;;;;;;;5.05;2.15;;;17.00;99.90;;;;;;4944686;28;20086;-52
2022/06/15 06:52:22;;;;;;;5.75;2.10;;;17.10;99.50;;;;;;4944761;28;20432;-51
2022/06/15 06:54:47;;;;;;;4.78;2.33;;;17.20;99.30;;;;;;4946746;28;20099;-52
2022/06/15 06:57:13;;;;;;;5.18;2.33;;;17.30;98.90;;;;;;4947646;29;20035;-51
2022/06/15 06:59:39;;;;;;;5.60;2.42;;;17.40;98.60;;;;;;4946968;29;20051;-52
2022/06/15 07:02:04;;;;;;;6.00;2.05;;;17.50;98.30;;;;;;4949255;28;20040;-54
2022/06/15 07:04:30;;;;;;;3.15;2.08;;;17.50;98.10;;;;;;4941512;29;20047;-52
2022/06/15 07:06:57;;;;;;;5.15;2.15;;;17.60;98.20;;;;;;4930469;29;20043;-52
2022/06/15 07:09:23;;;;;;;5.57;2.03;;;17.70;97.90;;;;;;4925199;29;20051;-53
2022/06/15 07:11:49;;;;;;;6.07;2.00;;;17.80;97.80;;;;;;4945347;28;20043;-53
2022/06/15 07:14:14;;;;;;;5.85;1.92;;;17.80;97.80;;;;;;4946581;28;20054;-52
2022/06/15 07:16:41;;;;;;;5.32;2.00;;;18.00;97.50;;;;;;4964920;28;20094;-53
2022/06/15 07:19:07;;;;;;;4.65;2.33;;;18.10;96.90;;;;;;4966018;28;20046;-53
2022/06/15 07:21:33;;;;;;;5.00;2.20;;;18.10;96.40;;;;;;4962123;28;20043;-48
2022/06/15 07:23:59;;;;;;;4.30;2.00;;;18.20;96.00;;;;;;4960122;28;20480;-52
2022/06/15 07:26:39;;;;;;;7.15;2.35;;;18.30;96.10;;;;;;4961043;28;20043;-53
2022/06/15 07:29:05;;;;;;;5.97;1.98;;;18.40;95.50;;;;;;4967758;28;20042;-51
2022/06/15 07:31:34;;;;;;;6.45;2.28;;;18.50;95.40;;;;;;4966661;28;20047;-49
2022/06/15 07:34:01;;;;;;;7.28;1.90;;;18.50;94.70;;;;;;4954872;28;20407;-52
2022/06/15 07:36:26;;;;;;;6.47;1.83;;;18.70;94.50;;;;;;4963528;28;20079;-48
2022/06/15 07:38:55;;;;;;;5.85;2.00;;;18.70;94.30;;;;;;4966501;28;20070;-53
2022/06/15 07:41:21;;;;;;;3.78;1.70;;;18.80;93.80;;;;;;4964587;28;20092;-52
2022/06/15 07:43:47;;;;;;;5.05;1.63;;;19.00;93.60;;;;;;4970144;28;20116;-53
2022/06/15 07:46:14;;;;;;;4.28;1.80;;;19.00;93.20;;;;;;4962916;28;20045;-49
2022/06/15 07:51:40;;;;;;;3.92;1.70;;;19.20;92.10;;;;;;4968754;28;20047;-53
2022/06/15 07:54:14;;;;;;;3.53;1.38;;;19.30;91.60;;;;;;4969887;28;20093;-53
2022/06/15 07:56:41;;;;;;;5.88;1.50;;;19.40;91.90;;;;;;4971926;28;20488;-52
2022/06/15 07:59:07;;;;;;;3.80;1.90;;;19.50;91.20;;;;;;4972913;28;20051;-50
2022/06/15 08:01:34;;;;;;;3.28;1.27;;;19.50;91.00;;;;;;4962830;28;20154;-52
2022/06/15 08:04:00;;;;;;;5.63;1.58;;;19.60;90.60;;;;;;4962222;28;20146;-52
2022/06/15 08:06:27;;;;;;;4.25;0.98;;;19.70;90.50;;;;;;4950836;28;20400;-46
2022/06/15 08:08:52;;;;;;;17.48;6.55;;;19.80;88.90;;;;;;4946198;28;20050;-52
2022/06/15 08:11:19;;;;;;;9.23;2.72;;;19.90;88.60;;;;;;4962273;28;20122;-52
2022/06/15 08:13:45;;;;;;;6.97;2.63;;;19.90;87.60;;;;;;4962803;28;20441;-48
2022/06/15 08:16:13;;;;;;;7.47;2.95;;;20.00;85.10;;;;;;4968928;28;20047;-48
2022/06/15 08:18:52;;;;;;;5.32;2.25;;;20.10;85.50;;;;;;4972226;28;20038;-52
2022/06/15 08:21:24;;;;;;;4.03;1.15;;;20.20;82.40;;;;;;4970333;28;20130;-53
2022/06/15 08:23:53;;;;;;;17.67;2.50;;;20.30;83.50;;;;;;4967868;28;20090;-53
2022/06/15 08:26:22;;;;;;;5.53;1.77;;;20.50;82.30;;;;;;4972651;28;20027;-52
2022/06/15 08:28:58;;;;;;;4.47;1.23;;;20.60;81.50;;;;;;4970250;28;20031;-52
2022/06/15 08:31:24;;;;;;;2.72;0.88;;;20.70;81.40;;;;;;4963870;28;20066;-41
2022/06/15 08:33:50;;;;;;;3.83;1.38;;;20.80;78.90;;;;;;4966832;28;20122;-51
2022/06/15 08:36:16;;;;;;;3.72;1.13;;;20.90;77.10;;;;;;4968443;28;20031;-52
2022/06/15 08:38:42;;;;;;;4.00;1.25;;;20.90;73.80;;;;;;4964717;28;20181;-50
2022/06/15 08:41:27;;;;;;;3.20;1.02;;;20.80;73.40;;;;;;4967545;28;20148;-52
2022/06/15 08:44:08;;;;;;;5.55;1.60;;;20.70;74.80;;;;;;4969476;28;20042;-51
2022/06/15 08:46:39;;;;;;;2.67;1.00;;;20.80;75.80;;;;;;4966290;28;20512;-47
2022/06/15 08:49:29;;;;;;;4.10;1.00;;;21.00;72.20;;;;;;4964072;28;20054;-49
2022/06/15 08:51:59;;;;;;;3.47;1.10;;;21.10;69.10;;;;;;4965945;28;20043;-52
2022/06/15 08:54:40;;;;;;;3.63;0.90;;;21.20;66.00;;;;;;4968588;28;20504;-50
2022/06/15 08:57:09;;;;;;;4.80;0.70;;;21.30;65.10;;;;;;4965393;28;20034;-49
2022/06/15 08:59:50;;;;;;;3.33;1.08;;;21.40;61.60;;;;;;4969655;28;20370;-51
2022/06/15 09:02:30;;;;;;;4.25;1.15;;;21.40;59.60;;;;;;4964182;28;20457;-47
2022/06/15 09:05:25;;;;;;;1.40;0.77;;;21.40;60.10;;;;;;4971473;28;20047;-51
2022/06/15 09:07:56;;;;;;;2.47;0.85;;;21.50;57.60;;;;;;4932228;28;20538;-50
2022/06/15 09:10:50;;;;;;;3.92;0.82;;;21.60;57.30;;;;;;4963640;28;20428;-48
2022/06/15 09:13:22;;;;;;;5.45;1.60;;;21.70;56.80;;;;;;4956949;28;20533;-51
2022/06/15 09:16:03;;;;;;;3.88;1.23;;;21.90;58.70;;;;;;4964605;28;20130;-47
2022/06/15 09:18:38;;;;;;;5.82;1.13;;;22.00;54.50;;;;;;4968679;28;20134;-52
2022/06/15 09:21:07;;;;;;;1.40;0.85;;;22.10;56.80;;;;;;4963921;28;20373;-51
2022/06/15 09:23:39;;;;;;;4.20;1.05;;;22.20;56.00;;;;;;4963165;28;20039;-51
2022/06/15 09:26:18;;;;;;;3.37;1.20;;;22.30;54.30;;;;;;4961568;28;20488;-51
2022/06/15 09:28:55;;;;;;;2.40;0.90;;;22.30;53.70;;;;;;4936593;28;20130;-52
2022/06/15 09:31:40;;;;;;;5.68;1.48;;;22.30;52.60;;;;;;4963971;28;20035;-48
2022/06/15 09:34:07;;;;;;;4.45;1.60;;;22.30;53.20;;;;;;4965911;28;20038;-50
2022/06/15 09:36:43;;;;;;;6.75;2.20;;;22.50;53.90;;;;;;4968156;28;20103;-51
2022/06/15 09:39:09;;;;;;;2.92;0.90;;;22.50;51.80;;;;;;4965536;28;20034;-52
2022/06/15 09:41:59;;;;;;;4.10;1.10;;;22.60;51.80;;;;;;4966959;28;20054;-52
2022/06/15 09:44:56;;;;;;;3.80;0.85;;;22.60;49.90;;;;;;4955035;28;20074;-52
2022/06/15 09:47:36;;;;;;;2.72;0.73;;;22.80;49.50;;;;;;4952165;28;20054;-47
2022/06/15 09:50:37;;;;;;;4.75;0.93;;;22.90;49.70;;;;;;4965343;28;20047;-50
2022/06/15 09:53:40;;;;;;;2.30;0.88;;;22.90;48.40;;;;;;4949378;28;20047;-47
2022/06/15 09:56:11;;;;;;;4.10;0.95;;;23.00;48.90;;;;;;4966231;28;20071;-51
2022/06/15 09:58:55;;;;;;;2.30;0.60;;;23.10;49.50;;;;;;4961933;28;20042;-52
2022/06/15 10:01:25;;;;;;;2.72;1.00;;;23.30;49.10;;;;;;4960631;28;20145;-47
2022/06/15 10:03:53;;;;;;;2.78;0.80;;;23.40;49.10;;;;;;4962606;28;20042;-49
2022/06/15 10:06:41;;;;;;;1.48;0.70;;;23.50;49.90;;;;;;4966051;28;20089;-52
2022/06/15 10:09:10;;;;;;;1.88;0.60;;;23.60;47.90;;;;;;4964897;28;20500;-49
2022/06/15 10:11:42;;;;;;;4.03;1.15;;;23.60;48.00;;;;;;4964781;28;20031;-51
2022/06/15 10:14:26;;;;;;;3.13;0.80;;;23.60;47.60;;;;;;4954118;28;20057;-49
2022/06/15 10:17:17;;;;;;;3.30;1.00;;;23.60;46.50;;;;;;4962527;28;20198;-52
2022/06/15 10:19:47;;;;;;;2.88;0.70;;;23.60;47.30;;;;;;4965293;28;20070;-49
2022/06/15 10:22:23;;;;;;;3.05;0.80;;;23.70;47.50;;;;;;4946716;28;20043;-46
2022/06/15 10:24:50;;;;;;;2.25;0.80;;;23.80;47.00;;;;;;4945024;28;20495;-46
2022/06/15 10:27:15;;;;;;;4.88;0.70;;;23.90;47.00;;;;;;4965710;28;20118;-48
2022/06/15 10:29:43;;;;;;;3.15;0.80;;;24.00;47.00;;;;;;4967226;28;20137;-50
2022/06/15 10:32:08;;;;;;;6.03;1.13;;;24.10;47.40;;;;;;4959526;28;20038;-47
2022/06/15 10:34:46;;;;;;;3.45;0.80;;;24.20;47.10;;;;;;4971041;28;20035;-51
2022/06/15 10:37:21;;;;;;;5.28;0.88;;;24.30;45.90;;;;;;4968045;28;20465;-51
2022/06/15 10:39:53;;;;;;;2.45;0.85;;;24.30;46.00;;;;;;4964999;28;20559;-51
2022/06/15 10:42:24;;;;;;;3.33;0.60;;;24.40;46.10;;;;;;4956954;28;20073;-47
2022/06/15 10:45:03;;;;;;;2.63;0.85;;;24.40;46.30;;;;;;4962942;28;20037;-47
2022/06/15 10:47:50;;;;;;;3.50;1.00;;;24.50;45.90;;;;;;4959274;28;20046;-50
2022/06/15 10:50:38;;;;;;;2.90;0.93;;;24.60;44.40;;;;;;4959736;28;20374;-48
2022/06/15 10:53:21;;;;;;;2.63;0.85;;;24.50;44.30;;;;;;4959182;28;20038;-48
2022/06/15 11:04:33;;;;;;;3.10;0.75;;;24.80;44.10;;;;;;4962302;28;20106;-49
2022/06/15 11:07:10;;;;;;;3.97;1.00;;;24.70;44.60;;;;;;4961835;28;20123;-49
2022/06/15 11:10:00;;;;;;;4.20;0.90;;;24.60;44.60;;;;;;4960751;28;20045;-50
2022/06/15 11:12:30;;;;;;;2.28;0.90;;;24.60;45.10;;;;;;4961024;28;20082;-47
2022/06/15 11:15:00;;;;;;;4.85;0.80;;;24.70;45.20;;;;;;4965014;28;20105;-52
2022/06/15 11:20:42;;;;;;;2.45;0.73;;;24.90;44.20;;;;;;4966014;28;20051;-48
2022/06/15 11:23:16;;;;;;;3.78;0.90;;;25.10;43.70;;;;;;4959209;28;20051;-49
2022/06/15 11:26:01;;;;;;;3.60;0.90;;;25.30;43.10;;;;;;4958840;28;20054;-54
2022/06/15 11:28:36;;;;;;;4.10;1.08;;;25.40;42.70;;;;;;4958197;28;20035;-48
2022/06/15 11:31:11;;;;;;;2.40;0.57;;;25.50;43.70;;;;;;4956777;28;20047;-43
2022/06/15 11:33:49;;;;;;;2.28;0.80;;;25.50;43.40;;;;;;4963868;28;20050;-47
2022/06/15 11:36:32;;;;;;;2.15;0.82;;;25.50;43.00;;;;;;4960869;28;20049;-45
2022/06/15 11:39:24;;;;;;;3.75;0.90;;;25.30;42.90;;;;;;4949085;28;20043;-49
2022/06/15 11:41:56;;;;;;;4.10;1.02;;;25.40;42.80;;;;;;4959052;28;21861;-46
2022/06/15 11:44:30;;;;;;;4.22;0.90;;;25.40;43.50;;;;;;4966346;28;20042;-48
2022/06/15 11:47:08;;;;;;;3.53;0.82;;;25.60;43.50;;;;;;4957720;28;20523;-50
2022/06/15 11:49:57;;;;;;;5.55;0.90;;;25.60;43.30;;;;;;4960753;28;20179;-49
2022/06/15 11:52:50;;;;;;;2.13;1.00;;;25.30;42.60;;;;;;4966875;28;20035;-46
2022/06/15 11:55:34;;;;;;;1.42;0.70;;;25.30;43.90;;;;;;4966937;28;20035;-49
2022/06/15 11:58:37;;;;;;;5.25;1.00;;;25.50;43.40;;;;;;4964751;28;20039;-50
2022/06/15 12:01:36;;;;;;;3.72;0.95;;;25.70;42.20;;;;;;4958299;28;20485;-50
2022/06/15 12:04:23;;;;;;;3.15;1.10;;;25.80;42.60;;;;;;4960058;28;20213;-49
2022/06/15 12:07:07;;;;;;;3.90;0.80;;;26.10;42.70;;;;;;4963274;28;20096;-48
2022/06/15 12:09:46;;;;;;;4.03;1.00;;;26.30;42.60;;;;;;4963644;28;20531;-47
2022/06/15 12:15:12;;;;;;;2.40;0.90;;;26.30;41.70;;;;;;4957558;28;20059;-49
2022/06/15 12:18:04;;;;;;;2.80;0.90;;;26.30;41.80;;;;;;4965924;28;20168;-50
2022/06/15 12:20:57;;;;;;;3.95;1.00;;;26.50;41.30;;;;;;4955778;28;20059;-51
2022/06/15 12:23:41;;;;;;;2.78;1.08;;;26.40;41.50;;;;;;4958101;28;20094;-45
2022/06/15 12:26:25;;;;;;;4.10;1.20;;;26.30;41.30;;;;;;4963978;28;20043;-47
2022/06/15 12:29:16;;;;;;;2.72;0.80;;;26.30;42.40;;;;;;4961503;28;20478;-45
2022/06/15 12:32:04;;;;;;;2.33;1.20;;;26.40;42.60;;;;;;4975884;28;20061;-45
2022/06/15 12:35:00;;;;;;;2.90;1.00;;;26.60;41.50;;;;;;4944888;28;20046;-48
2022/06/15 12:37:43;;;;;;;2.30;1.00;;;26.70;40.30;;;;;;4963315;28;20040;-46
2022/06/15 12:40:19;;;;;;;2.85;0.90;;;26.80;41.00;;;;;;4962105;28;20046;-45
2022/06/15 12:42:49;;;;;;;2.90;0.80;;;26.90;40.30;;;;;;4964701;28;20039;-44
2022/06/15 12:45:26;;;;;;;3.45;0.80;;;27.00;40.00;;;;;;4965529;28;20421;-47
2022/06/15 12:47:57;;;;;;;3.97;1.13;;;27.00;40.40;;;;;;4943396;28;20053;-44
2022/06/15 12:50:51;;;;;;;2.25;1.00;;;27.10;40.60;;;;;;4962276;28;20497;-48
2022/06/15 12:53:28;;;;;;;3.08;0.80;;;27.10;40.20;;;;;;4961197;28;20038;-46
2022/06/15 12:56:07;;;;;;;2.70;0.88;;;27.10;40.80;;;;;;4965320;28;20098;-46
2022/06/15 12:58:45;;;;;;;2.85;0.80;;;27.10;40.40;;;;;;4966758;28;20061;-47
2022/06/15 13:01:13;;;;;;;3.85;1.00;;;27.20;40.40;;;;;;4961327;28;20039;-46
2022/06/15 13:03:47;;;;;;;3.53;0.95;;;27.40;40.20;;;;;;4965677;28;20042;-44
2022/06/15 13:06:35;;;;;;;4.43;1.10;;;27.40;39.30;;;;;;4960987;28;20049;-45
2022/06/15 13:09:18;;;;;;;3.78;1.10;;;27.30;39.30;;;;;;4967252;28;20042;-47
2022/06/15 13:12:13;;;;;;;2.75;1.00;;;27.30;39.60;;;;;;4967526;28;20737;-46
2022/06/15 13:14:56;;;;;;;1.80;0.80;;;27.30;41.00;;;;;;4945033;28;20567;-50
2022/06/15 13:17:28;;;;;;;2.75;1.08;;;27.50;40.30;;;;;;4967129;28;20047;-46
2022/06/15 13:20:07;;;;;;;1.95;0.93;;;27.70;39.50;;;;;;4965133;28;20047;-48
2022/06/15 13:22:40;;;;;;;3.70;0.93;;;27.30;38.60;;;;;;4974493;28;20039;-49
2022/06/15 13:25:11;;;;;;;2.80;1.05;;;27.10;39.60;;;;;;4965264;28;20061;-47
2022/06/15 13:28:02;;;;;;;2.50;0.90;;;26.90;39.70;;;;;;4970171;28;20110;-49
2022/06/15 13:30:50;;;;;;;3.03;1.13;;;26.90;39.70;;;;;;4926662;28;20141;-47
2022/06/15 13:33:20;;;;;;;3.47;1.05;;;26.90;39.40;;;;;;4965984;28;20647;-45
2022/06/15 13:36:11;;;;;;;2.75;0.80;;;27.10;39.10;;;;;;4968430;28;20098;-47